Time;durP1;ratioP1;P1;durP2;ratioP2;P2;SDS_P1;SDS_P2;PMS_P1;PMS_P2;Temp;Humidity;BMP_temperature;BMP_pressure;BME280_temperature;BME280_humidity;BME280_pressure;Samples;Min_cycle;Max_cycle;Signal;HPM_P1;HPM_P2
2023/02/13 00:00:20;;;;;;;;;;;;;;;;;;5073017;28;1146;-45
2023/02/13 00:02:48;;;;;;;;;;;;;;;;;;5072737;28;1411;-47
2023/02/13 00:05:15;;;;;;;;;;;;;;;;;;5071596;28;1202;-39
2023/02/13 00:07:42;;;;;;;;;;;;;;;;;;5072436;28;1902;-48
2023/02/13 00:10:10;;;;;;;;;;;;;;;;;;5072840;28;1111;-49
2023/02/13 00:12:37;;;;;;;;;;;;;;;;;;5072708;28;1063;-45
2023/02/13 00:15:04;;;;;;;;;;;;;;;;;;5072630;28;1031;-52
2023/02/13 00:17:32;;;;;;;;;;;;;;;;;;5072752;28;964;-49
2023/02/13 00:19:59;;;;;;;;;;;;;;;;;;5072470;28;1021;-53
2023/02/13 00:22:26;;;;;;;;;;;;;;;;;;5072589;28;1149;-49
2023/02/13 00:24:53;;;;;;;;;;;;;;;;;;5072402;28;1328;-50
2023/02/13 00:27:20;;;;;;;;;;;;;;;;;;5072071;28;1080;-46
2023/02/13 00:29:48;;;;;;;;;;;;;;;;;;5070880;28;1981;-48
2023/02/13 00:32:15;;;;;;;;;;;;;;;;;;5072117;28;1269;-53
2023/02/13 00:34:42;;;;;;;;;;;;;;;;;;5072172;28;1072;-49
2023/02/13 00:37:10;;;;;;;;;;;;;;;;;;5071990;28;1020;-48
2023/02/13 00:39:37;;;;;;;;;;;;;;;;;;5070848;28;1753;-51
2023/02/13 00:42:04;;;;;;;;;;;;;;;;;;5072346;28;1249;-42
2023/02/13 00:44:32;;;;;;;;;;;;;;;;;;5071971;28;1303;-44
2023/02/13 00:47:00;;;;;;;;;;;;;;;;;;5071985;28;1206;-49
2023/02/13 00:49:27;;;;;;;;;;;;;;;;;;5071875;28;1917;-49
2023/02/13 00:51:54;;;;;;;;;;;;;;;;;;5072104;28;1534;-45
2023/02/13 00:54:21;;;;;;;;;;;;;;;;;;5071566;28;1052;-47
2023/02/13 00:56:48;;;;;;;;;;;;;;;;;;5071902;28;1065;-49
2023/02/13 00:59:16;;;;;;;;;;;;;;;;;;5071830;28;1403;-43
2023/02/13 01:01:43;;;;;;;;;;;;;;;;;;5071502;28;1109;-51
2023/02/13 01:04:10;;;;;;;;;;;;;;;;;;5071594;28;1484;-43
2023/02/13 01:06:38;;;;;;;;;;;;;;;;;;5070614;28;2340;-47
2023/02/13 01:09:05;;;;;;;;;;;;;;;;;;5071582;28;1963;-50
2023/02/13 01:11:34;;;;;;;;;;;;;;;;;;5070152;28;1393;-50
2023/02/13 01:14:01;;;;;;;;;;;;;;;;;;5071397;28;1388;-46
2023/02/13 01:16:29;;;;;;;;;;;;;;;;;;5071376;28;1236;-47
2023/02/13 01:18:56;;;;;;;;;;;;;;;;;;5071415;28;893;-45
2023/02/13 01:21:23;;;;;;;;;;;;;;;;;;5071312;28;1023;-48
2023/02/13 01:23:52;;;;;;;;;;;;;;;;;;5071167;28;985;-46
2023/02/13 01:26:21;;;;;;;;;;;;;;;;;;5071359;28;1172;-46
2023/02/13 01:28:53;;;;;;;;;;;;;;;;;;5071228;28;1910;-47
2023/02/13 01:31:21;;;;;;;;;;;;;;;;;;5070044;28;1110;-46
2023/02/13 01:33:49;;;;;;;;;;;;;;;;;;5071154;28;1167;-47
2023/02/13 01:36:20;;;;;;;;;;;;;;;;;;5086097;28;1242;-48
2023/02/13 01:38:47;;;;;;;;;;;;;;;;;;5070699;28;1401;-47
2023/02/13 01:41:14;;;;;;;;;;;;;;;;;;5071354;28;1438;-43
2023/02/13 01:43:52;;;;;;;;;;;;;;;;;;5071265;28;897;-42
2023/02/13 01:46:32;;;;;;;;;;;;;;;;;;5070999;28;1161;-46
2023/02/13 01:49:05;;;;;;;;;;;;;;;;;;5070886;28;1973;-45
2023/02/13 01:51:33;;;;;;;;;;;;;;;;;;5071117;28;1002;-53
2023/02/13 01:54:13;;;;;;;;;;;;;;;;;;5069557;28;1171;-53
2023/02/13 01:56:43;;;;;;;;;;;;;;;;;;5071144;28;1167;-52
2023/02/13 01:59:12;;;;;;;;;;;;;;;;;;5069869;28;1209;-51
2023/02/13 02:01:39;;;;;;;;;;;;;;;;;;5103492;28;2440;-49
2023/02/13 02:04:09;;;;;;;;;;;;;;;;;;5086754;28;1409;-47
2023/02/13 02:06:42;;;;;;;;;;;;;;;;;;5089735;28;1095;-47
2023/02/13 02:09:11;;;;;;;;;;;;;;;;;;5073127;28;1976;-46
2023/02/13 02:11:56;;;;;;;;;;;;;;;;;;5091166;28;1305;-48
2023/02/13 02:14:25;;;;;;;;;;;;;;;;;;5090912;28;1578;-52
2023/02/13 02:16:54;;;;;;;;;;;;;;;;;;5089572;28;1557;-49
2023/02/13 02:19:32;;;;;;;;;;;;;;;;;;5089874;28;1060;-49
2023/02/13 02:22:11;;;;;;;;;;;;;;;;;;5089853;28;1179;-50
2023/02/13 02:24:38;;;;;;;;;;;;;;;;;;5089612;28;1786;-49
2023/02/13 02:27:11;;;;;;;;;;;;;;;;;;5089672;28;1423;-48
2023/02/13 02:29:52;;;;;;;;;;;;;;;;;;5089499;28;1891;-44
2023/02/13 02:32:34;;;;;;;;;;;;;;;;;;5089426;28;1194;-44
2023/02/13 02:35:08;;;;;;;;;;;;;;;;;;5090631;28;1215;-54
2023/02/13 02:37:37;;;;;;;;;;;;;;;;;;5089440;28;1659;-51
2023/02/13 02:40:17;;;;;;;;;;;;;;;;;;5086164;28;1537;-45
2023/02/13 02:42:54;;;;;;;;;;;;;;;;;;5070664;28;1076;-45
2023/02/13 02:45:31;;;;;;;;;;;;;;;;;;5069160;28;1357;-53
2023/02/13 02:50:50;;;;;;;;;;;;;;;;;;5071502;28;1967;-47
2023/02/13 02:53:33;;;;;;;;;;;;;;;;;;5074211;28;964;-45
2023/02/13 02:56:00;;;;;;;;;;;;;;;;;;5074020;28;1014;-42
2023/02/13 03:07:16;;;;;;;;;;;;;;;;;;5074237;28;1184;-49
2023/02/13 03:15:28;;;;;;;;;;;;;;;;;;5073651;28;990;-46
2023/02/13 03:23:41;;;;;;;;;;;;;;;;;;5073590;28;1240;-50
2023/02/13 03:26:14;;;;;;;;;;;;;;;;;;5073491;28;1015;-49
2023/02/13 03:31:43;;;;;;;;;;;;;;;;;;5073340;28;995;-52
2023/02/13 03:34:14;;;;;;;;;;;;;;;;;;5073190;28;1177;-50
2023/02/13 03:39:51;;;;;;;;;;;;;;;;;;5073248;28;1082;-53
2023/02/13 03:42:27;;;;;;;;;;;;;;;;;;5073362;28;1129;-48
2023/02/13 03:47:46;;;;;;;;;;;;;;;;;;5072859;28;1507;-44
2023/02/13 03:50:14;;;;;;;;;;;;;;;;;;5092059;28;1910;-46
2023/02/13 03:52:47;;;;;;;;;;;;;;;;;;5093269;28;908;-44
2023/02/13 04:00:53;;;;;;;;;;;;;;;;;;5091908;28;2467;-48
2023/02/13 04:03:23;;;;;;;;;;;;;;;;;;5081603;28;1379;-44
2023/02/13 04:05:53;;;;;;;;;;;;;;;;;;5084209;28;1217;-46
2023/02/13 04:08:20;;;;;;;;;;;;;;;;;;5089716;28;986;-43
2023/02/13 04:10:57;;;;;;;;;;;;;;;;;;5074040;28;1975;-46
2023/02/13 04:13:33;;;;;;;;;;;;;;;;;;5084874;28;1195;-46
2023/02/13 04:16:06;;;;;;;;;;;;;;;;;;5072931;28;901;-47
2023/02/13 04:18:33;;;;;;;;;;;;;;;;;;5084939;28;1170;-43
2023/02/13 04:21:05;;;;;;;;;;;;;;;;;;5084271;28;1198;-46
2023/02/13 04:23:32;;;;;;;;;;;;;;;;;;5079753;28;1192;-42
2023/02/13 04:26:04;;;;;;;;;;;;;;;;;;5090679;28;1987;-48
2023/02/13 04:28:31;;;;;;;;;;;;;;;;;;5092917;28;991;-47
2023/02/13 04:30:58;;;;;;;;;;;;;;;;;;5092620;28;1957;-49
2023/02/13 04:33:26;;;;;;;;;;;;;;;;;;5092830;28;1120;-47
2023/02/13 04:35:53;;;;;;;;;;;;;;;;;;5092459;28;1147;-44
2023/02/13 04:38:20;;;;;;;;;;;;;;;;;;5092812;28;1038;-49
2023/02/13 04:40:47;;;;;;;;;;;;;;;;;;5092406;28;1397;-48
2023/02/13 04:43:15;;;;;;;;;;;;;;;;;;5092488;28;1017;-49
2023/02/13 04:45:42;;;;;;;;;;;;;;;;;;5092484;28;976;-51
2023/02/13 04:48:09;;;;;;;;;;;;;;;;;;5092219;28;1197;-43
2023/02/13 04:50:36;;;;;;;;;;;;;;;;;;5092450;28;1909;-49
2023/02/13 04:53:03;;;;;;;;;;;;;;;;;;5092112;28;1467;-53
2023/02/13 04:55:31;;;;;;;;;;;;;;;;;;5092159;28;1133;-50
2023/02/13 04:57:58;;;;;;;;;;;;;;;;;;5092122;28;992;-45
2023/02/13 05:00:26;;;;;;;;;;;;;;;;;;5092037;28;1285;-41
2023/02/13 05:02:59;;;;;;;;;;;;;;;;;;5092138;28;1363;-50
2023/02/13 05:05:26;;;;;;;;;;;;;;;;;;5091532;28;1025;-47
2023/02/13 05:07:53;;;;;;;;;;;;;;;;;;5092062;28;986;-46
2023/02/13 05:10:20;;;;;;;;;;;;;;;;;;5092096;28;1981;-47
2023/02/13 05:12:47;;;;;;;;;;;;;;;;;;5091854;28;963;-47
2023/02/13 05:15:15;;;;;;;;;;;;;;;;;;5091285;28;1155;-47
2023/02/13 05:17:45;;;;;;;;;;;;;;;;;;5091855;28;1095;-46
2023/02/13 05:20:13;;;;;;;;;;;;;;;;;;5091776;28;1045;-47
2023/02/13 05:25:33;;;;;;;;;;;;;;;;;;5091675;28;1163;-43
2023/02/13 05:28:00;;;;;;;;;;;;;;;;;;5091798;28;1242;-46
2023/02/13 05:30:27;;;;;;;;;;;;;;;;;;5091413;28;1916;-48
2023/02/13 05:32:54;;;;;;;;;;;;;;;;;;5091698;28;957;-51
2023/02/13 05:35:22;;;;;;;;;;;;;;;;;;5091542;28;1184;-47
2023/02/13 05:37:49;;;;;;;;;;;;;;;;;;5091549;28;954;-45
2023/02/13 05:40:16;;;;;;;;;;;;;;;;;;5091396;28;1047;-49
2023/02/13 05:42:43;;;;;;;;;;;;;;;;;;5091427;28;1368;-48
2023/02/13 05:45:10;;;;;;;;;;;;;;;;;;5091222;28;1344;-41
2023/02/13 05:47:37;;;;;;;;;;;;;;;;;;5091342;28;1279;-50
2023/02/13 05:50:05;;;;;;;;;;;;;;;;;;5091095;28;1934;-48
2023/02/13 05:52:32;;;;;;;;;;;;;;;;;;5091289;28;1131;-48
2023/02/13 05:54:59;;;;;;;;;;;;;;;;;;5091387;28;939;-43
2023/02/13 05:57:26;;;;;;;;;;;;;;;;;;5091424;28;1033;-49
2023/02/13 05:59:53;;;;;;;;;;;;;;;;;;5091277;28;1022;-50
2023/02/13 06:02:21;;;;;;;;;;;;;;;;;;5087288;28;1430;-44
2023/02/13 06:04:48;;;;;;;;;;;;;;;;;;5071072;28;1079;-50
2023/02/13 06:07:15;;;;;;;;;;;;;;;;;;5071025;28;1243;-45
2023/02/13 06:09:42;;;;;;;;;;;;;;;;;;5070728;28;1981;-46
2023/02/13 06:12:09;;;;;;;;;;;;;;;;;;5070953;28;991;-45
2023/02/13 06:14:36;;;;;;;;;;;;;;;;;;5070929;28;935;-49
2023/02/13 06:17:03;;;;;;;;;;;;;;;;;;5069828;28;1033;-46
2023/02/13 06:19:31;;;;;;;;;;;;;;;;;;5069567;28;992;-45
2023/02/13 06:21:58;;;;;;;;;;;;;;;;;;5071128;28;1371;-46
2023/02/13 06:24:25;;;;;;;;;;;;;;;;;;5071000;28;1088;-53
2023/02/13 06:26:52;;;;;;;;;;;;;;;;;;5074640;28;1032;-48
2023/02/13 06:29:19;;;;;;;;;;;;;;;;;;5074872;28;1083;-44
2023/02/13 06:31:46;;;;;;;;;;;;;;;;;;5074801;28;1909;-44
2023/02/13 06:34:14;;;;;;;;;;;;;;;;;;5074546;28;1307;-52
2023/02/13 06:36:41;;;;;;;;;;;;;;;;;;5074646;28;1008;-47
2023/02/13 06:39:09;;;;;;;;;;;;;;;;;;5074067;28;1316;-50
2023/02/13 06:41:36;;;;;;;;;;;;;;;;;;5074644;28;978;-45
2023/02/13 06:44:04;;;;;;;;;;;;;;;;;;5074486;28;900;-48
2023/02/13 06:46:31;;;;;;;;;;;;;;;;;;5074605;28;916;-48
2023/02/13 06:48:58;;;;;;;;;;;;;;;;;;5074630;28;1099;-53
2023/02/13 06:51:25;;;;;;;;;;;;;;;;;;5074285;28;1981;-49
2023/02/13 06:53:52;;;;;;;;;;;;;;;;;;5074262;28;1067;-49
2023/02/13 06:56:19;;;;;;;;;;;;;;;;;;5074198;28;1000;-50
2023/02/13 06:58:47;;;;;;;;;;;;;;;;;;5074391;28;998;-46
2023/02/13 07:01:14;;;;;;;;;;;;;;;;;;5074201;28;1028;-49
2023/02/13 07:03:41;;;;;;;;;;;;;;;;;;5073912;28;1419;-44
2023/02/13 07:06:08;;;;;;;;;;;;;;;;;;5074149;28;1080;-44
2023/02/13 07:08:35;;;;;;;;;;;;;;;;;;5073766;28;1091;-49
2023/02/13 07:11:03;;;;;;;;;;;;;;;;;;5073954;28;1961;-47
2023/02/13 07:13:30;;;;;;;;;;;;;;;;;;5074401;28;1052;-50
2023/02/13 07:15:59;;;;;;;;;;;;;;;;;;5073769;28;1264;-50
2023/02/13 07:18:27;;;;;;;;;;;;;;;;;;5073860;28;1034;-47
2023/02/13 07:20:54;;;;;;;;;;;;;;;;;;5073722;28;1173;-46
2023/02/13 07:23:21;;;;;;;;;;;;;;;;;;5073695;28;1110;-48
2023/02/13 07:25:48;;;;;;;;;;;;;;;;;;5073724;28;1045;-45
2023/02/13 07:28:15;;;;;;;;;;;;;;;;;;5073641;28;1199;-46
2023/02/13 07:30:42;;;;;;;;;;;;;;;;;;5073472;28;1912;-49
2023/02/13 07:33:10;;;;;;;;;;;;;;;;;;5073486;28;1018;-44
2023/02/13 07:35:40;;;;;;;;;;;;;;;;;;5073295;28;1072;-46
2023/02/13 07:38:08;;;;;;;;;;;;;;;;;;5072446;28;955;-46
2023/02/13 07:40:36;;;;;;;;;;;;;;;;;;5073652;28;1101;-45
2023/02/13 07:43:03;;;;;;;;;;;;;;;;;;5073547;28;979;-48
2023/02/13 07:45:30;;;;;;;;;;;;;;;;;;5073516;28;960;-48
2023/02/13 07:47:59;;;;;;;;;;;;;;;;;;5073139;28;1165;-47
2023/02/13 07:50:26;;;;;;;;;;;;;;;;;;5072987;28;1911;-49
2023/02/13 07:52:57;;;;;;;;;;;;;;;;;;5073374;28;1412;-50
2023/02/13 07:55:25;;;;;;;;;;;;;;;;;;5073184;28;1278;-50
2023/02/13 07:57:52;;;;;;;;;;;;;;;;;;5073090;28;1032;-48
2023/02/13 08:00:20;;;;;;;;;;;;;;;;;;5073111;28;918;-47
2023/02/13 08:02:47;;;;;;;;;;;;;;;;;;5079014;28;1462;-48
2023/02/13 08:05:14;;;;;;;;;;;;;;;;;;5093188;28;983;-45
2023/02/13 08:07:41;;;;;;;;;;;;;;;;;;5093101;28;1059;-44
2023/02/13 08:12:57;;;;;;;;;;;;;;;;;;5092992;28;1259;-45
2023/02/13 08:15:24;;;;;;;;;;;;;;;;;;5091836;28;1115;-49
2023/02/13 08:17:52;;;;;;;;;;;;;;;;;;5093030;28;1177;-49
2023/02/13 08:20:22;;;;;;;;;;;;;;;;;;5093066;28;1254;-49
2023/02/13 08:22:50;;;;;;;;;;;;;;;;;;5092863;28;949;-49
2023/02/13 08:25:19;;;;;;;;;;;;;;;;;;5092903;28;923;-43
2023/02/13 08:27:46;;;;;;;;;;;;;;;;;;5092464;28;1119;-47
2023/02/13 08:30:14;;;;;;;;;;;;;;;;;;5092478;28;1926;-49
2023/02/13 08:32:41;;;;;;;;;;;;;;;;;;5092704;28;1145;-48
2023/02/13 08:35:25;;;;;;;;;;;;;;;;;;5092345;28;1156;-49
2023/02/13 08:37:52;;;;;;;;;;;;;;;;;;5092568;28;1044;-41
2023/02/13 08:40:20;;;;;;;;;;;;;;;;;;5092373;28;1284;-46
2023/02/13 08:42:49;;;;;;;;;;;;;;;;;;5092569;28;1163;-46
2023/02/13 08:45:16;;;;;;;;;;;;;;;;;;5092305;28;1100;-40
2023/02/13 08:47:43;;;;;;;;;;;;;;;;;;5092264;28;1046;-47
2023/02/13 08:50:10;;;;;;;;;;;;;;;;;;5092156;28;1978;-45
2023/02/13 08:52:37;;;;;;;;;;;;;;;;;;5092292;28;1278;-41
2023/02/13 08:55:07;;;;;;;;;;;;;;;;;;5092590;28;1085;-44
2023/02/13 08:57:34;;;;;;;;;;;;;;;;;;5079885;28;1158;-42
2023/02/13 09:00:02;;;;;;;;;;;;;;;;;;5071727;28;1279;-42
2023/02/13 09:02:29;;;;;;;;;;;;;;;;;;5071844;28;1384;-42
2023/02/13 09:04:56;;;;;;;;;;;;;;;;;;5071840;28;1389;-43
2023/02/13 09:07:24;;;;;;;;;;;;;;;;;;5071542;28;1009;-42
2023/02/13 09:09:51;;;;;;;;;;;;;;;;;;5071672;28;995;-48
2023/02/13 09:12:18;;;;;;;;;;;;;;;;;;5071694;28;1970;-48
2023/02/13 09:14:46;;;;;;;;;;;;;;;;;;5071767;28;1301;-44
2023/02/13 09:17:17;;;;;;;;;;;;;;;;;;5070063;28;1201;-43
2023/02/13 09:19:46;;;;;;;;;;;;;;;;;;5071454;28;885;-43
2023/02/13 09:22:15;;;;;;;;;;;;;;;;;;5071359;28;915;-41
2023/02/13 09:24:43;;;;;;;;;;;;;;;;;;5071510;28;1174;-45
2023/02/13 09:27:10;;;;;;;;;;;;;;;;;;5071368;28;1084;-47
2023/02/13 09:29:37;;;;;;;;;;;;;;;;;;5071708;28;1129;-47
2023/02/13 09:32:04;;;;;;;;;;;;;;;;;;5071301;28;1910;-41
2023/02/13 09:34:32;;;;;;;;;;;;;;;;;;5070966;28;1212;-42
2023/02/13 09:36:59;;;;;;;;;;;;;;;;;;5071294;28;1436;-47
2023/02/13 09:39:26;;;;;;;;;;;;;;;;;;5071201;28;1021;-44
2023/02/13 09:41:53;;;;;;;;;;;;;;;;;;5071286;28;988;-43
2023/02/13 09:44:32;;;;;;;;;;;;;;;;;;5071376;28;914;-45
2023/02/13 09:47:06;;;;;;;;;;;;;;;;;;5071057;28;941;-46
2023/02/13 09:49:36;;;;;;;;;;;;;;;;;;5071093;28;1073;-42
2023/02/13 09:52:03;;;;;;;;;;;;;;;;;;5071215;28;1976;-41
2023/02/13 09:54:31;;;;;;;;;;;;;;;;;;5071179;28;1007;-40
2023/02/13 09:57:06;;;;;;;;;;;;;;;;;;5071187;28;905;-40
2023/02/13 09:59:33;;;;;;;;;;;;;;;;;;5070548;28;1065;-44
2023/02/13 10:02:07;;;;;;;;;;;;;;;;;;5071102;28;1244;-40
2023/02/13 10:04:34;;;;;;;;;;;;;;;;;;5071049;28;971;-43
2023/02/13 10:07:08;;;;;;;;;;;;;;;;;;5069853;28;1341;-48
2023/02/13 10:09:59;;;;;;;;;;;;;;;;;;5071061;28;940;-46
2023/02/13 10:12:35;;;;;;;;;;;;;;;;;;5070881;28;1901;-47
2023/02/13 10:15:11;;;;;;;;;;;;;;;;;;5070878;28;1015;-47
2023/02/13 10:17:40;;;;;;;;;;;;;;;;;;5069769;28;1020;-43
2023/02/13 10:20:24;;;;;;;;;;;;;;;;;;5070632;28;911;-44
2023/02/13 10:22:56;;;;;;;;;;;;;;;;;;5069701;28;1080;-42
2023/02/13 10:25:26;;;;;;;;;;;;;;;;;;5070761;28;904;-44
2023/02/13 10:28:13;;;;;;;;;;;;;;;;;;5070609;28;956;-44
2023/02/13 10:31:03;;;;;;;;;;;;;;;;;;5070505;28;1963;-42
2023/02/13 10:33:37;;;;;;;;;;;;;;;;;;5070710;28;1056;-42
2023/02/13 10:36:10;;;;;;;;;;;;;;;;;;5070582;28;1458;-43
2023/02/13 10:38:44;;;;;;;;;;;;;;;;;;5070700;28;1380;-42
2023/02/13 10:41:20;;;;;;;;;;;;;;;;;;5080655;28;1125;-42
2023/02/13 10:44:16;;;;;;;;;;;;;;;;;;5090665;28;1193;-41
2023/02/13 10:46:58;;;;;;;;;;;;;;;;;;5053445;28;1259;-46
2023/02/13 10:49:51;;;;;;;;;;;;;;;;;;5083138;28;1155;-43
2023/02/13 10:52:37;;;;;;;;;;;;;;;;;;5069724;28;1912;-43
2023/02/13 10:55:04;;;;;;;;;;;;;;;;;;5069352;28;1374;-42
2023/02/13 10:57:46;;;;;;;;;;;;;;;;;;5070509;28;1113;-44
2023/02/13 11:00:32;;;;;;;;;;;;;;;;;;5070478;28;1155;-43
2023/02/13 11:03:02;;;;;;;;;;;;;;;;;;5069999;28;1467;-42
2023/02/13 11:05:31;;;;;;;;;;;;;;;;;;5070414;28;1013;-43
2023/02/13 11:08:05;;;;;;;;;;;;;;;;;;5070229;28;1301;-41
2023/02/13 11:10:36;;;;;;;;;;;;;;;;;;5070316;28;1075;-43
2023/02/13 11:13:21;;;;;;;;;;;;;;;;;;5072756;28;935;-44
2023/02/13 11:16:05;;;;;;;;;;;;;;;;;;5073770;28;1021;-42
2023/02/13 11:18:37;;;;;;;;;;;;;;;;;;5072900;28;989;-43
2023/02/13 11:21:16;;;;;;;;;;;;;;;;;;5073804;28;962;-39
2023/02/13 11:23:43;;;;;;;;;;;;;;;;;;5073567;28;1047;-44
2023/02/13 11:26:14;;;;;;;;;;;;;;;;;;5073781;28;1325;-45
2023/02/13 11:28:47;;;;;;;;;;;;;;;;;;5073641;28;1181;-42
2023/02/13 11:31:14;;;;;;;;;;;;;;;;;;5073731;28;1910;-41
2023/02/13 11:33:41;;;;;;;;;;;;;;;;;;5073617;28;1172;-45
2023/02/13 11:36:12;;;;;;;;;;;;;;;;;;5073585;28;1096;-43
2023/02/13 11:38:39;;;;;;;;;;;;;;;;;;5085966;28;1220;-38
2023/02/13 11:41:11;;;;;;;;;;;;;;;;;;5093573;28;1132;-41
2023/02/13 11:43:48;;;;;;;;;;;;;;;;;;5093560;28;1168;-43
2023/02/13 11:46:18;;;;;;;;;;;;;;;;;;5093755;28;908;-43
2023/02/13 11:48:56;;;;;;;;;;;;;;;;;;5093954;28;987;-39
2023/02/13 11:51:37;;;;;;;;;;;;;;;;;;5093485;28;1903;-43
2023/02/13 11:54:04;;;;;;;;;;;;;;;;;;5093257;28;1164;-42
2023/02/13 11:57:04;;;;;;;;;;;;;;;;;;5093596;28;1270;-43
2023/02/13 11:59:38;;;;;;;;;;;;;;;;;;5070691;28;1137;-41
2023/02/13 12:02:14;;;;;;;;;;;;;;;;;;5092655;28;1375;-43
2023/02/13 12:04:46;;;;;;;;;;;;;;;;;;5073125;28;1276;-40
2023/02/13 12:07:28;;;;;;;;;;;;;;;;;;5072918;28;989;-47
2023/02/13 12:10:05;;;;;;;;;;;;;;;;;;5072818;28;1179;-39
2023/02/13 12:12:38;;;;;;;;;;;;;;;;;;5072730;28;1902;-46
2023/02/13 12:15:38;;;;;;;;;;;;;;;;;;5072785;28;1184;-45
2023/02/13 12:18:11;;;;;;;;;;;;;;;;;;5060447;28;1162;-41
2023/02/13 12:20:38;;;;;;;;;;;;;;;;;;5072634;28;1087;-41
2023/02/13 12:23:17;;;;;;;;;;;;;;;;;;5072259;28;1065;-42
2023/02/13 12:26:04;;;;;;;;;;;;;;;;;;5072493;28;1293;-45
2023/02/13 12:28:45;;;;;;;;;;;;;;;;;;5072268;28;1207;-43
2023/02/13 12:31:25;;;;;;;;;;;;;;;;;;5072398;28;1905;-40
2023/02/13 12:33:56;;;;;;;;;;;;;;;;;;5072232;28;1495;-43
2023/02/13 12:36:31;;;;;;;;;;;;;;;;;;5072715;28;992;-43
2023/02/13 12:39:23;;;;;;;;;;;;;;;;;;5072342;28;951;-42
2023/02/13 12:42:19;;;;;;;;;;;;;;;;;;5072381;28;918;-40
2023/02/13 12:44:48;;;;;;;;;;;;;;;;;;5072091;28;1145;-43
2023/02/13 12:47:21;;;;;;;;;;;;;;;;;;5072092;28;1098;-45
2023/02/13 12:49:51;;;;;;;;;;;;;;;;;;5072157;28;981;-44
2023/02/13 12:52:22;;;;;;;;;;;;;;;;;;5071695;28;1914;-42
2023/02/13 12:54:49;;;;;;;;;;;;;;;;;;5071987;28;1051;-46
2023/02/13 12:57:19;;;;;;;;;;;;;;;;;;5072006;28;1102;-43
2023/02/13 12:59:53;;;;;;;;;;;;;;;;;;5071892;28;972;-42
2023/02/13 13:02:40;;;;;;;;;;;;;;;;;;5071849;28;1400;-43
2023/02/13 13:05:10;;;;;;;;;;;;;;;;;;5070733;28;9556;-43
2023/02/13 13:07:44;;;;;;;;;;;;;;;;;;5071794;28;1358;-42
2023/02/13 13:10:14;;;;;;;;;;;;;;;;;;5071737;28;943;-42
2023/02/13 13:12:47;;;;;;;;;;;;;;;;;;5071594;28;1908;-43
2023/02/13 13:15:30;;;;;;;;;;;;;;;;;;5071506;28;928;-44
2023/02/13 13:18:16;;;;;;;;;;;;;;;;;;5070634;28;931;-43
2023/02/13 13:21:06;;;;;;;;;;;;;;;;;;5070699;28;932;-46
2023/02/13 13:23:39;;;;;;;;;;;;;;;;;;5052240;28;1182;-42
2023/02/13 13:26:06;;;;;;;;;;;;;;;;;;5071389;28;1083;-43
2023/02/13 13:28:35;;;;;;;;;;;;;;;;;;5071566;28;1183;-44
2023/02/13 13:31:03;;;;;;;;;;;;;;;;;;5071360;28;1208;-41
2023/02/13 13:33:32;;;;;;;;;;;;;;;;;;5071393;28;1987;-47
2023/02/13 13:36:06;;;;;;;;;;;;;;;;;;5069098;28;1453;-40
2023/02/13 13:38:38;;;;;;;;;;;;;;;;;;5069903;28;1101;-45
2023/02/13 13:41:17;;;;;;;;;;;;;;;;;;5071403;28;1163;-43
2023/02/13 13:43:54;;;;;;;;;;;;;;;;;;5070102;28;919;-43
2023/02/13 13:46:52;;;;;;;;;;;;;;;;;;5070722;28;1265;-40
2023/02/13 13:49:40;;;;;;;;;;;;;;;;;;5063011;28;1371;-46
2023/02/13 13:52:21;;;;;;;;;;;;;;;;;;5071062;28;1907;-42
2023/02/13 13:54:51;;;;;;;;;;;;;;;;;;5071008;28;1348;-45
2023/02/13 13:57:22;;;;;;;;;;;;;;;;;;5071137;28;1151;-45
2023/02/13 14:00:00;;;;;;;;;;;;;;;;;;5071137;28;1125;-42
2023/02/13 14:02:41;;;;;;;;;;;;;;;;;;5071096;28;1411;-44
2023/02/13 14:05:08;;;;;;;;;;;;;;;;;;5071076;28;932;-42
2023/02/13 14:07:36;;;;;;;;;;;;;;;;;;5071030;28;1028;-38
2023/02/13 14:10:05;;;;;;;;;;;;;;;;;;5071009;28;1156;-46
2023/02/13 14:12:32;;;;;;;;;;;;;;;;;;5070989;28;1938;-43
2023/02/13 14:15:03;;;;;;;;;;;;;;;;;;5071402;28;1354;-43
2023/02/13 14:17:45;;;;;;;;;;;;;;;;;;5071071;28;1072;-42
2023/02/13 14:20:20;;;;;;;;;;;;;;;;;;5070942;28;1350;-43
2023/02/13 14:22:48;;;;;;;;;;;;;;;;;;5070987;28;1216;-46
2023/02/13 14:25:21;;;;;;;;;;;;;;;;;;5070853;28;1373;-46
2023/02/13 14:27:56;;;;;;;;;;;;;;;;;;5071008;28;1150;-41
2023/02/13 14:30:26;;;;;;;;;;;;;;;;;;5070520;28;1003;-43
2023/02/13 14:32:54;;;;;;;;;;;;;;;;;;5070724;28;1981;-44
2023/02/13 14:35:24;;;;;;;;;;;;;;;;;;5070637;28;1449;-40
2023/02/13 14:37:58;;;;;;;;;;;;;;;;;;5070750;28;952;-44
2023/02/13 14:40:28;;;;;;;;;;;;;;;;;;5103192;28;2401;-43
2023/02/13 14:42:57;;;;;;;;;;;;;;;;;;5070786;28;1186;-47
2023/02/13 14:45:32;;;;;;;;;;;;;;;;;;5070799;28;905;-42
2023/02/13 14:48:05;;;;;;;;;;;;;;;;;;5074584;28;1297;-48
2023/02/13 14:50:58;;;;;;;;;;;;;;;;;;5074377;28;1347;-42
2023/02/13 14:53:29;;;;;;;;;;;;;;;;;;5070184;28;1981;-43
2023/02/13 14:56:07;;;;;;;;;;;;;;;;;;5074197;28;1016;-44
2023/02/13 14:58:36;;;;;;;;;;;;;;;;;;5074187;28;979;-38
2023/02/13 15:01:22;;;;;;;;;;;;;;;;;;5074149;28;1189;-42
2023/02/13 15:04:09;;;;;;;;;;;;;;;;;;5089031;28;1345;-44
2023/02/13 15:06:38;;;;;;;;;;;;;;;;;;5094406;28;2010;-47
2023/02/13 15:09:16;;;;;;;;;;;;;;;;;;5094520;28;873;-48
2023/02/13 15:11:43;;;;;;;;;;;;;;;;;;5094146;28;1902;-41
2023/02/13 15:14:14;;;;;;;;;;;;;;;;;;5094372;28;1000;-46
2023/02/13 15:16:42;;;;;;;;;;;;;;;;;;5094330;28;1247;-42
2023/02/13 15:19:19;;;;;;;;;;;;;;;;;;5094178;28;1033;-48
2023/02/13 15:21:52;;;;;;;;;;;;;;;;;;5094109;28;1349;-42
2023/02/13 15:24:21;;;;;;;;;;;;;;;;;;5093995;28;1011;-45
2023/02/13 15:26:53;;;;;;;;;;;;;;;;;;5093959;28;907;-47
2023/02/13 15:29:20;;;;;;;;;;;;;;;;;;5094016;28;1289;-45
2023/02/13 15:31:57;;;;;;;;;;;;;;;;;;5092571;28;2476;-43
2023/02/13 15:34:26;;;;;;;;;;;;;;;;;;5092339;28;1410;-46
2023/02/13 15:36:54;;;;;;;;;;;;;;;;;;5093693;28;1175;-42
2023/02/13 15:39:23;;;;;;;;;;;;;;;;;;5093813;28;1104;-46
2023/02/13 15:41:54;;;;;;;;;;;;;;;;;;5093825;28;1069;-48
2023/02/13 15:44:24;;;;;;;;;;;;;;;;;;5093635;28;971;-48
2023/02/13 15:46:52;;;;;;;;;;;;;;;;;;5093677;28;912;-46
2023/02/13 15:49:24;;;;;;;;;;;;;;;;;;5093306;28;1018;-47
2023/02/13 15:52:01;;;;;;;;;;;;;;;;;;5093576;28;1902;-46
2023/02/13 15:54:30;;;;;;;;;;;;;;;;;;5093421;28;1398;-47
2023/02/13 15:57:10;;;;;;;;;;;;;;;;;;5093305;28;1062;-48
2023/02/13 15:59:38;;;;;;;;;;;;;;;;;;5092819;28;1054;-44
2023/02/13 16:02:10;;;;;;;;;;;;;;;;;;5093089;28;1343;-49
2023/02/13 16:04:39;;;;;;;;;;;;;;;;;;5073111;28;1235;-42
2023/02/13 16:07:08;;;;;;;;;;;;;;;;;;5073390;28;1085;-44
2023/02/13 16:09:36;;;;;;;;;;;;;;;;;;5073253;28;1095;-47
2023/02/13 16:12:21;;;;;;;;;;;;;;;;;;5073175;28;1980;-42
2023/02/13 16:14:58;;;;;;;;;;;;;;;;;;5072752;28;1077;-49
2023/02/13 16:17:28;;;;;;;;;;;;;;;;;;5072763;28;1451;-45
2023/02/13 16:19:55;;;;;;;;;;;;;;;;;;5072771;28;1330;-48
2023/02/13 16:22:22;;;;;;;;;;;;;;;;;;5072718;28;1074;-48
2023/02/13 16:24:51;;;;;;;;;;;;;;;;;;5072633;28;1225;-43
2023/02/13 16:27:22;;;;;;;;;;;;;;;;;;5072495;28;1053;-47
2023/02/13 16:29:53;;;;;;;;;;;;;;;;;;5072689;28;1130;-45
2023/02/13 16:32:24;;;;;;;;;;;;;;;;;;5072463;28;1972;-46
2023/02/13 16:34:53;;;;;;;;;;;;;;;;;;5072349;28;1227;-46
2023/02/13 16:37:33;;;;;;;;;;;;;;;;;;5072237;28;1009;-47
2023/02/13 16:40:32;;;;;;;;;;;;;;;;;;5072441;28;992;-45
2023/02/13 16:43:18;;;;;;;;;;;;;;;;;;5072289;28;1087;-40
2023/02/13 16:45:48;;;;;;;;;;;;;;;;;;5070773;28;1133;-46
2023/02/13 16:48:15;;;;;;;;;;;;;;;;;;5072332;28;952;-46
2023/02/13 16:50:42;;;;;;;;;;;;;;;;;;5072116;28;990;-45
2023/02/13 16:53:10;;;;;;;;;;;;;;;;;;5072246;28;1911;-43
2023/02/13 16:55:37;;;;;;;;;;;;;;;;;;5071961;28;1217;-44
2023/02/13 16:58:04;;;;;;;;;;;;;;;;;;5071774;28;1107;-48
2023/02/13 17:00:32;;;;;;;;;;;;;;;;;;5070227;28;1004;-43
2023/02/13 17:02:59;;;;;;;;;;;;;;;;;;5077789;28;1348;-46
2023/02/13 17:05:27;;;;;;;;;;;;;;;;;;5090327;28;1123;-47
2023/02/13 17:08:00;;;;;;;;;;;;;;;;;;5090324;28;1061;-45
2023/02/13 17:10:32;;;;;;;;;;;;;;;;;;5090246;28;924;-47
2023/02/13 17:13:01;;;;;;;;;;;;;;;;;;5089922;28;1892;-49
2023/02/13 17:15:30;;;;;;;;;;;;;;;;;;5091467;28;1185;-45
2023/02/13 17:17:57;;;;;;;;;;;;;;;;;;5091966;28;934;-48
2023/02/13 17:20:26;;;;;;;;;;;;;;;;;;5091835;28;1083;-47
2023/02/13 17:22:54;;;;;;;;;;;;;;;;;;5091906;28;1423;-47
2023/02/13 17:25:23;;;;;;;;;;;;;;;;;;5091649;28;905;-44
2023/02/13 17:27:51;;;;;;;;;;;;;;;;;;5091708;28;1092;-43
2023/02/13 17:30:19;;;;;;;;;;;;;;;;;;5091656;28;959;-45
2023/02/13 17:32:48;;;;;;;;;;;;;;;;;;5091559;28;1907;-38
2023/02/13 17:35:15;;;;;;;;;;;;;;;;;;5091495;28;1374;-50
2023/02/13 17:37:43;;;;;;;;;;;;;;;;;;5091602;28;1004;-45
2023/02/13 17:40:17;;;;;;;;;;;;;;;;;;5091507;28;1169;-46
2023/02/13 17:42:45;;;;;;;;;;;;;;;;;;5091440;28;1078;-44
2023/02/13 17:45:13;;;;;;;;;;;;;;;;;;5091673;28;1094;-46
2023/02/13 17:47:41;;;;;;;;;;;;;;;;;;5091686;28;1612;-45
2023/02/13 17:50:08;;;;;;;;;;;;;;;;;;5090035;28;1088;-49
2023/02/13 17:52:37;;;;;;;;;;;;;;;;;;5091286;28;1905;-44
2023/02/13 17:55:05;;;;;;;;;;;;;;;;;;5091444;28;1345;-50
2023/02/13 17:57:32;;;;;;;;;;;;;;;;;;5080733;28;1163;-44
2023/02/13 18:00:03;;;;;;;;;;;;;;;;;;5071212;28;915;-45
2023/02/13 18:02:38;;;;;;;;;;;;;;;;;;5071059;28;1398;-47
2023/02/13 18:05:05;;;;;;;;;;;;;;;;;;5071199;28;1027;-44
2023/02/13 18:07:32;;;;;;;;;;;;;;;;;;5070991;28;1144;-48
2023/02/13 18:09:59;;;;;;;;;;;;;;;;;;5071182;28;1070;-47
2023/02/13 18:12:27;;;;;;;;;;;;;;;;;;5070795;28;2295;-48
2023/02/13 18:14:56;;;;;;;;;;;;;;;;;;5071210;28;1365;-49